sensor_id;sensor_type;location;lat;lon;timestamp;P1;durP1;ratioP1;P2;durP2;ratioP2
15843;SDS011;50807;52.436;13.346;2023-05-16T00:00:21;3.07;;;2.80;;
15843;SDS011;50807;52.436;13.346;2023-05-16T00:00:54;3.60;;;3.30;;
15843;SDS011;50807;52.436;13.346;2023-05-16T00:01:28;4.78;;;3.33;;
15843;SDS011;50807;52.436;13.346;2023-05-16T00:01:59;3.88;;;3.58;;
15843;SDS011;50807;52.436;13.346;2023-05-16T00:02:32;3.53;;;3.20;;
15843;SDS011;50807;52.436;13.346;2023-05-16T00:03:03;4.87;;;3.23;;
15843;SDS011;50807;52.436;13.346;2023-05-16T00:03:36;3.85;;;3.55;;
15843;SDS011;50807;52.436;13.346;2023-05-16T00:04:08;3.83;;;3.42;;
15843;SDS011;50807;52.436;13.346;2023-05-16T00:04:42;3.87;;;3.57;;
15843;SDS011;50807;52.436;13.346;2023-05-16T00:05:13;4.00;;;3.70;;
15843;SDS011;50807;52.436;13.346;2023-05-16T00:05:45;3.67;;;3.38;;
15843;SDS011;50807;52.436;13.346;2023-05-16T00:06:17;3.60;;;3.30;;
15843;SDS011;50807;52.436;13.346;2023-05-16T00:06:48;3.47;;;3.23;;
15843;SDS011;50807;52.436;13.346;2023-05-16T00:07:19;4.00;;;3.47;;
15843;SDS011;50807;52.436;13.346;2023-05-16T00:07:51;4.05;;;3.65;;
15843;SDS011;50807;52.436;13.346;2023-05-16T00:08:22;4.33;;;4.03;;
15843;SDS011;50807;52.436;13.346;2023-05-16T00:08:53;3.72;;;3.40;;
15843;SDS011;50807;52.436;13.346;2023-05-16T00:09:24;3.67;;;3.38;;
15843;SDS011;50807;52.436;13.346;2023-05-16T00:09:55;3.77;;;3.47;;
15843;SDS011;50807;52.436;13.346;2023-05-16T00:10:26;5.00;;;4.00;;
15843;SDS011;50807;52.436;13.346;2023-05-16T00:10:57;3.73;;;3.43;;
15843;SDS011;50807;52.436;13.346;2023-05-16T00:11:29;4.35;;;3.90;;
15843;SDS011;50807;52.436;13.346;2023-05-16T00:12:00;3.67;;;3.40;;
15843;SDS011;50807;52.436;13.346;2023-05-16T00:12:31;3.37;;;3.17;;
15843;SDS011;50807;52.436;13.346;2023-05-16T00:13:03;3.78;;;3.47;;
15843;SDS011;50807;52.436;13.346;2023-05-16T00:13:33;4.17;;;3.23;;
15843;SDS011;50807;52.436;13.346;2023-05-16T00:14:04;4.35;;;4.03;;
15843;SDS011;50807;52.436;13.346;2023-05-16T00:14:36;3.97;;;3.67;;
15843;SDS011;50807;52.436;13.346;2023-05-16T00:15:09;4.00;;;3.70;;
15843;SDS011;50807;52.436;13.346;2023-05-16T00:15:43;4.05;;;3.60;;
15843;SDS011;50807;52.436;13.346;2023-05-16T00:16:15;3.50;;;3.20;;
15843;SDS011;50807;52.436;13.346;2023-05-16T00:16:46;3.70;;;3.40;;
15843;SDS011;50807;52.436;13.346;2023-05-16T00:17:17;3.90;;;3.60;;
15843;SDS011;50807;52.436;13.346;2023-05-16T00:17:50;4.07;;;3.67;;
15843;SDS011;50807;52.436;13.346;2023-05-16T00:18:21;4.10;;;3.70;;
15843;SDS011;50807;52.436;13.346;2023-05-16T00:18:52;4.45;;;4.13;;
15843;SDS011;50807;52.436;13.346;2023-05-16T00:19:25;4.00;;;3.70;;
15843;SDS011;50807;52.436;13.346;2023-05-16T00:20:00;4.07;;;3.70;;
15843;SDS011;50807;52.436;13.346;2023-05-16T00:20:40;3.92;;;3.58;;
15843;SDS011;50807;52.436;13.346;2023-05-16T00:21:13;4.30;;;4.00;;
15843;SDS011;50807;52.436;13.346;2023-05-16T00:21:43;4.38;;;3.97;;
15843;SDS011;50807;52.436;13.346;2023-05-16T00:22:14;4.40;;;4.10;;
15843;SDS011;50807;52.436;13.346;2023-05-16T00:22:46;4.30;;;3.92;;
15843;SDS011;50807;52.436;13.346;2023-05-16T00:23:17;3.60;;;3.30;;
15843;SDS011;50807;52.436;13.346;2023-05-16T00:23:48;3.40;;;3.20;;
15843;SDS011;50807;52.436;13.346;2023-05-16T00:24:19;3.80;;;3.50;;
15843;SDS011;50807;52.436;13.346;2023-05-16T00:24:51;3.63;;;3.40;;
15843;SDS011;50807;52.436;13.346;2023-05-16T00:25:23;3.80;;;3.50;;
15843;SDS011;50807;52.436;13.346;2023-05-16T00:25:54;3.28;;;2.97;;
15843;SDS011;50807;52.436;13.346;2023-05-16T00:26:25;3.63;;;3.33;;
15843;SDS011;50807;52.436;13.346;2023-05-16T00:26:57;4.25;;;3.95;;
15843;SDS011;50807;52.436;13.346;2023-05-16T00:27:28;4.27;;;3.87;;
15843;SDS011;50807;52.436;13.346;2023-05-16T00:27:59;4.40;;;4.10;;
15843;SDS011;50807;52.436;13.346;2023-05-16T00:28:31;4.00;;;3.80;;
15843;SDS011;50807;52.436;13.346;2023-05-16T00:29:02;4.70;;;4.00;;
15843;SDS011;50807;52.436;13.346;2023-05-16T00:29:32;4.40;;;4.10;;
15843;SDS011;50807;52.436;13.346;2023-05-16T00:30:07;4.20;;;3.90;;
15843;SDS011;50807;52.436;13.346;2023-05-16T00:30:39;4.28;;;3.97;;
15843;SDS011;50807;52.436;13.346;2023-05-16T00:31:10;4.77;;;4.03;;
15843;SDS011;50807;52.436;13.346;2023-05-16T00:31:44;4.43;;;4.03;;
15843;SDS011;50807;52.436;13.346;2023-05-16T00:32:16;4.95;;;4.15;;
15843;SDS011;50807;52.436;13.346;2023-05-16T00:32:50;4.50;;;4.10;;
15843;SDS011;50807;52.436;13.346;2023-05-16T00:33:22;4.53;;;4.20;;
15843;SDS011;50807;52.436;13.346;2023-05-16T00:33:53;4.33;;;3.90;;
15843;SDS011;50807;52.436;13.346;2023-05-16T00:34:23;4.43;;;4.03;;
15843;SDS011;50807;52.436;13.346;2023-05-16T00:34:55;3.97;;;3.67;;
15843;SDS011;50807;52.436;13.346;2023-05-16T00:35:26;4.07;;;3.78;;
15843;SDS011;50807;52.436;13.346;2023-05-16T00:35:57;4.53;;;4.13;;
15843;SDS011;50807;52.436;13.346;2023-05-16T00:36:30;4.07;;;3.70;;
15843;SDS011;50807;52.436;13.346;2023-05-16T00:37:02;4.68;;;4.25;;
15843;SDS011;50807;52.436;13.346;2023-05-16T00:37:33;4.38;;;3.97;;
15843;SDS011;50807;52.436;13.346;2023-05-16T00:38:04;4.60;;;4.22;;
15843;SDS011;50807;52.436;13.346;2023-05-16T00:38:38;4.43;;;4.13;;
15843;SDS011;50807;52.436;13.346;2023-05-16T00:39:09;4.70;;;4.40;;
15843;SDS011;50807;52.436;13.346;2023-05-16T00:39:41;5.03;;;4.05;;
15843;SDS011;50807;52.436;13.346;2023-05-16T00:40:12;4.47;;;4.13;;
15843;SDS011;50807;52.436;13.346;2023-05-16T00:40:43;4.43;;;4.10;;
15843;SDS011;50807;52.436;13.346;2023-05-16T00:41:15;4.90;;;4.50;;
15843;SDS011;50807;52.436;13.346;2023-05-16T00:41:48;4.60;;;4.28;;
15843;SDS011;50807;52.436;13.346;2023-05-16T00:42:21;4.23;;;3.93;;
15843;SDS011;50807;52.436;13.346;2023-05-16T00:42:52;4.82;;;4.45;;
15843;SDS011;50807;52.436;13.346;2023-05-16T00:43:24;5.90;;;4.53;;
15843;SDS011;50807;52.436;13.346;2023-05-16T00:43:55;4.47;;;4.10;;
15843;SDS011;50807;52.436;13.346;2023-05-16T00:44:26;4.87;;;4.50;;
15843;SDS011;50807;52.436;13.346;2023-05-16T00:44:58;5.10;;;4.70;;
15843;SDS011;50807;52.436;13.346;2023-05-16T00:45:29;4.87;;;4.40;;
15843;SDS011;50807;52.436;13.346;2023-05-16T00:46:00;4.90;;;4.50;;
15843;SDS011;50807;52.436;13.346;2023-05-16T00:46:34;4.90;;;4.50;;
15843;SDS011;50807;52.436;13.346;2023-05-16T00:47:05;4.67;;;4.30;;
15843;SDS011;50807;52.436;13.346;2023-05-16T00:47:37;4.75;;;4.35;;
15843;SDS011;50807;52.436;13.346;2023-05-16T00:48:09;4.50;;;4.20;;
15843;SDS011;50807;52.436;13.346;2023-05-16T00:48:41;5.00;;;4.60;;
15843;SDS011;50807;52.436;13.346;2023-05-16T00:49:12;5.32;;;4.82;;
15843;SDS011;50807;52.436;13.346;2023-05-16T00:49:44;4.30;;;4.00;;
15843;SDS011;50807;52.436;13.346;2023-05-16T00:50:15;4.77;;;4.37;;
15843;SDS011;50807;52.436;13.346;2023-05-16T00:50:47;4.90;;;4.50;;
15843;SDS011;50807;52.436;13.346;2023-05-16T00:51:19;4.43;;;4.13;;
15843;SDS011;50807;52.436;13.346;2023-05-16T00:51:51;4.78;;;4.38;;
15843;SDS011;50807;52.436;13.346;2023-05-16T00:52:23;4.82;;;4.53;;
15843;SDS011;50807;52.436;13.346;2023-05-16T00:52:55;4.57;;;4.28;;
15843;SDS011;50807;52.436;13.346;2023-05-16T00:53:26;5.20;;;4.80;;
15843;SDS011;50807;52.436;13.346;2023-05-16T00:53:58;5.13;;;4.72;;
15843;SDS011;50807;52.436;13.346;2023-05-16T00:54:30;4.97;;;4.60;;
15843;SDS011;50807;52.436;13.346;2023-05-16T00:55:01;4.40;;;4.10;;
15843;SDS011;50807;52.436;13.346;2023-05-16T00:55:33;5.18;;;4.70;;
15843;SDS011;50807;52.436;13.346;2023-05-16T00:56:05;4.60;;;4.20;;
15843;SDS011;50807;52.436;13.346;2023-05-16T00:56:36;5.10;;;4.70;;
15843;SDS011;50807;52.436;13.346;2023-05-16T00:57:07;5.47;;;4.97;;
15843;SDS011;50807;52.436;13.346;2023-05-16T00:57:40;5.53;;;5.05;;
15843;SDS011;50807;52.436;13.346;2023-05-16T00:58:12;5.50;;;5.00;;
15843;SDS011;50807;52.436;13.346;2023-05-16T00:58:45;5.20;;;4.80;;
15843;SDS011;50807;52.436;13.346;2023-05-16T00:59:16;4.82;;;4.43;;
15843;SDS011;50807;52.436;13.346;2023-05-16T00:59:47;5.43;;;4.97;;
15843;SDS011;50807;52.436;13.346;2023-05-16T01:00:19;5.07;;;4.63;;
15843;SDS011;50807;52.436;13.346;2023-05-16T01:00:51;5.57;;;5.07;;
15843;SDS011;50807;52.436;13.346;2023-05-16T01:01:23;5.43;;;4.93;;
15843;SDS011;50807;52.436;13.346;2023-05-16T01:01:56;5.03;;;4.57;;
15843;SDS011;50807;52.436;13.346;2023-05-16T01:02:28;5.40;;;5.00;;
15843;SDS011;50807;52.436;13.346;2023-05-16T01:02:59;5.20;;;4.75;;
15843;SDS011;50807;52.436;13.346;2023-05-16T01:03:30;5.85;;;5.45;;
15843;SDS011;50807;52.436;13.346;2023-05-16T01:04:04;5.40;;;5.00;;
15843;SDS011;50807;52.436;13.346;2023-05-16T01:04:36;5.85;;;5.40;;
15843;SDS011;50807;52.436;13.346;2023-05-16T01:05:07;5.07;;;4.63;;
15843;SDS011;50807;52.436;13.346;2023-05-16T01:05:39;5.50;;;5.10;;
15843;SDS011;50807;52.436;13.346;2023-05-16T01:06:10;5.85;;;5.20;;
15843;SDS011;50807;52.436;13.346;2023-05-16T01:06:42;6.13;;;5.53;;
15843;SDS011;50807;52.436;13.346;2023-05-16T01:07:15;5.43;;;4.95;;
15843;SDS011;50807;52.436;13.346;2023-05-16T01:07:46;5.40;;;5.00;;
15843;SDS011;50807;52.436;13.346;2023-05-16T01:08:18;5.82;;;5.32;;
15843;SDS011;50807;52.436;13.346;2023-05-16T01:08:50;6.15;;;5.72;;
15843;SDS011;50807;52.436;13.346;2023-05-16T01:09:21;5.50;;;5.00;;
15843;SDS011;50807;52.436;13.346;2023-05-16T01:09:52;5.68;;;5.18;;
15843;SDS011;50807;52.436;13.346;2023-05-16T01:10:25;5.50;;;5.10;;
15843;SDS011;50807;52.436;13.346;2023-05-16T01:11:07;5.50;;;5.00;;
15843;SDS011;50807;52.436;13.346;2023-05-16T01:11:50;5.15;;;4.75;;
15843;SDS011;50807;52.436;13.346;2023-05-16T01:12:34;5.95;;;5.47;;
15843;SDS011;50807;52.436;13.346;2023-05-16T01:13:11;5.93;;;5.53;;
15843;SDS011;50807;52.436;13.346;2023-05-16T01:13:54;6.07;;;5.65;;
15843;SDS011;50807;52.436;13.346;2023-05-16T01:14:45;5.93;;;5.43;;
15843;SDS011;50807;52.436;13.346;2023-05-16T01:15:27;5.88;;;5.47;;
15843;SDS011;50807;52.436;13.346;2023-05-16T01:16:08;6.50;;;5.88;;
15843;SDS011;50807;52.436;13.346;2023-05-16T01:16:58;6.30;;;5.70;;
15843;SDS011;50807;52.436;13.346;2023-05-16T01:17:42;5.70;;;5.30;;
15843;SDS011;50807;52.436;13.346;2023-05-16T01:18:24;5.57;;;5.07;;
15843;SDS011;50807;52.436;13.346;2023-05-16T01:19:13;6.13;;;5.63;;
15843;SDS011;50807;52.436;13.346;2023-05-16T01:20:02;6.28;;;5.72;;
15843;SDS011;50807;52.436;13.346;2023-05-16T01:20:42;5.60;;;5.20;;
15843;SDS011;50807;52.436;13.346;2023-05-16T01:21:23;5.60;;;5.10;;
15843;SDS011;50807;52.436;13.346;2023-05-16T01:22:14;5.57;;;5.18;;
15843;SDS011;50807;52.436;13.346;2023-05-16T01:23:03;6.30;;;5.70;;
15843;SDS011;50807;52.436;13.346;2023-05-16T01:23:50;6.07;;;5.65;;
15843;SDS011;50807;52.436;13.346;2023-05-16T01:24:34;6.03;;;5.63;;
15843;SDS011;50807;52.436;13.346;2023-05-16T01:25:26;5.90;;;5.40;;
15843;SDS011;50807;52.436;13.346;2023-05-16T01:26:17;5.80;;;5.40;;
15843;SDS011;50807;52.436;13.346;2023-05-16T01:26:51;5.78;;;5.28;;
15843;SDS011;50807;52.436;13.346;2023-05-16T01:27:26;5.97;;;5.47;;
15843;SDS011;50807;52.436;13.346;2023-05-16T01:27:59;6.50;;;6.00;;
15843;SDS011;50807;52.436;13.346;2023-05-16T01:28:32;7.88;;;6.25;;
15843;SDS011;50807;52.436;13.346;2023-05-16T01:29:05;6.63;;;6.13;;
15843;SDS011;50807;52.436;13.346;2023-05-16T01:29:37;6.20;;;5.75;;
15843;SDS011;50807;52.436;13.346;2023-05-16T01:30:13;6.15;;;5.75;;
15843;SDS011;50807;52.436;13.346;2023-05-16T01:30:46;6.70;;;6.15;;
15843;SDS011;50807;52.436;13.346;2023-05-16T01:31:20;6.97;;;6.15;;
15843;SDS011;50807;52.436;13.346;2023-05-16T01:31:53;7.00;;;6.38;;
15843;SDS011;50807;52.436;13.346;2023-05-16T01:32:24;6.20;;;5.70;;
15843;SDS011;50807;52.436;13.346;2023-05-16T01:32:55;6.33;;;5.83;;
15843;SDS011;50807;52.436;13.346;2023-05-16T01:33:26;6.63;;;5.90;;
15843;SDS011;50807;52.436;13.346;2023-05-16T01:33:57;6.45;;;5.90;;
15843;SDS011;50807;52.436;13.346;2023-05-16T01:34:28;7.00;;;6.40;;
15843;SDS011;50807;52.436;13.346;2023-05-16T01:34:59;6.70;;;6.17;;
15843;SDS011;50807;52.436;13.346;2023-05-16T01:35:31;6.47;;;5.93;;
15843;SDS011;50807;52.436;13.346;2023-05-16T01:36:06;6.22;;;5.78;;
15843;SDS011;50807;52.436;13.346;2023-05-16T01:36:52;6.05;;;5.55;;
15843;SDS011;50807;52.436;13.346;2023-05-16T01:37:37;5.72;;;5.25;;
15843;SDS011;50807;52.436;13.346;2023-05-16T01:38:15;5.65;;;5.25;;
15843;SDS011;50807;52.436;13.346;2023-05-16T01:39:00;6.68;;;6.07;;
15843;SDS011;50807;52.436;13.346;2023-05-16T01:39:49;5.60;;;5.20;;
15843;SDS011;50807;52.436;13.346;2023-05-16T01:40:29;6.07;;;5.57;;
15843;SDS011;50807;52.436;13.346;2023-05-16T01:41:11;5.75;;;5.32;;
15843;SDS011;50807;52.436;13.346;2023-05-16T01:41:52;6.55;;;5.95;;
15843;SDS011;50807;52.436;13.346;2023-05-16T01:42:34;5.82;;;5.30;;
15843;SDS011;50807;52.436;13.346;2023-05-16T01:43:12;6.60;;;6.00;;
15843;SDS011;50807;52.436;13.346;2023-05-16T01:43:51;6.53;;;5.93;;
15843;SDS011;50807;52.436;13.346;2023-05-16T01:44:32;6.22;;;5.72;;
15843;SDS011;50807;52.436;13.346;2023-05-16T01:45:11;6.10;;;5.70;;
15843;SDS011;50807;52.436;13.346;2023-05-16T01:45:52;5.88;;;5.40;;
15843;SDS011;50807;52.436;13.346;2023-05-16T01:46:39;5.70;;;5.30;;
15843;SDS011;50807;52.436;13.346;2023-05-16T01:47:16;6.30;;;5.80;;
15843;SDS011;50807;52.436;13.346;2023-05-16T01:47:56;5.82;;;5.43;;
15843;SDS011;50807;52.436;13.346;2023-05-16T01:48:34;5.97;;;5.47;;
15843;SDS011;50807;52.436;13.346;2023-05-16T01:49:15;5.93;;;5.50;;
15843;SDS011;50807;52.436;13.346;2023-05-16T01:49:56;6.20;;;5.60;;
15843;SDS011;50807;52.436;13.346;2023-05-16T01:50:38;6.20;;;5.70;;
15843;SDS011;50807;52.436;13.346;2023-05-16T01:51:17;6.32;;;5.72;;
15843;SDS011;50807;52.436;13.346;2023-05-16T01:51:53;6.50;;;5.97;;
15843;SDS011;50807;52.436;13.346;2023-05-16T01:52:31;5.90;;;5.40;;
15843;SDS011;50807;52.436;13.346;2023-05-16T01:53:13;6.05;;;5.55;;
15843;SDS011;50807;52.436;13.346;2023-05-16T01:53:51;5.82;;;5.40;;
15843;SDS011;50807;52.436;13.346;2023-05-16T01:54:28;5.50;;;5.10;;
15843;SDS011;50807;52.436;13.346;2023-05-16T01:55:02;6.03;;;5.35;;
15843;SDS011;50807;52.436;13.346;2023-05-16T01:55:41;6.47;;;5.97;;
15843;SDS011;50807;52.436;13.346;2023-05-16T01:56:16;5.80;;;5.30;;
15843;SDS011;50807;52.436;13.346;2023-05-16T01:56:51;6.03;;;5.43;;
15843;SDS011;50807;52.436;13.346;2023-05-16T01:57:25;5.32;;;4.85;;
15843;SDS011;50807;52.436;13.346;2023-05-16T01:57:59;5.88;;;5.47;;
15843;SDS011;50807;52.436;13.346;2023-05-16T01:58:33;6.10;;;5.60;;
15843;SDS011;50807;52.436;13.346;2023-05-16T01:59:06;6.65;;;5.95;;
15843;SDS011;50807;52.436;13.346;2023-05-16T01:59:39;6.00;;;5.60;;
15843;SDS011;50807;52.436;13.346;2023-05-16T02:00:12;6.30;;;5.80;;
15843;SDS011;50807;52.436;13.346;2023-05-16T02:00:44;5.75;;;5.32;;
15843;SDS011;50807;52.436;13.346;2023-05-16T02:01:15;6.30;;;5.80;;
15843;SDS011;50807;52.436;13.346;2023-05-16T02:01:47;5.90;;;5.30;;
15843;SDS011;50807;52.436;13.346;2023-05-16T02:02:18;5.75;;;5.25;;
15843;SDS011;50807;52.436;13.346;2023-05-16T02:02:49;6.28;;;5.68;;
15843;SDS011;50807;52.436;13.346;2023-05-16T02:03:21;7.18;;;6.47;;
15843;SDS011;50807;52.436;13.346;2023-05-16T02:03:52;5.80;;;5.40;;
15843;SDS011;50807;52.436;13.346;2023-05-16T02:04:23;6.57;;;5.63;;
15843;SDS011;50807;52.436;13.346;2023-05-16T02:04:55;5.82;;;5.43;;
15843;SDS011;50807;52.436;13.346;2023-05-16T02:05:26;5.97;;;5.53;;
15843;SDS011;50807;52.436;13.346;2023-05-16T02:05:57;5.77;;;5.33;;
15843;SDS011;50807;52.436;13.346;2023-05-16T02:06:29;6.55;;;5.95;;
15843;SDS011;50807;52.436;13.346;2023-05-16T02:07:00;7.50;;;5.67;;
15843;SDS011;50807;52.436;13.346;2023-05-16T02:07:34;6.00;;;5.50;;
15843;SDS011;50807;52.436;13.346;2023-05-16T02:08:10;4.55;;;4.15;;
15843;SDS011;50807;52.436;13.346;2023-05-16T02:08:41;5.70;;;5.30;;
15843;SDS011;50807;52.436;13.346;2023-05-16T02:09:12;6.10;;;5.50;;
15843;SDS011;50807;52.436;13.346;2023-05-16T02:09:44;5.35;;;4.95;;
15843;SDS011;50807;52.436;13.346;2023-05-16T02:10:15;6.27;;;5.77;;
15843;SDS011;50807;52.436;13.346;2023-05-16T02:10:45;6.10;;;5.63;;
15843;SDS011;50807;52.436;13.346;2023-05-16T02:11:19;5.47;;;5.07;;
15843;SDS011;50807;52.436;13.346;2023-05-16T02:11:51;6.32;;;5.65;;
15843;SDS011;50807;52.436;13.346;2023-05-16T02:12:22;5.37;;;4.97;;
15843;SDS011;50807;52.436;13.346;2023-05-16T02:12:55;5.80;;;5.40;;
15843;SDS011;50807;52.436;13.346;2023-05-16T02:13:26;5.78;;;5.28;;
15843;SDS011;50807;52.436;13.346;2023-05-16T02:13:56;5.77;;;5.37;;
15843;SDS011;50807;52.436;13.346;2023-05-16T02:14:27;5.97;;;5.47;;
15843;SDS011;50807;52.436;13.346;2023-05-16T02:14:59;5.22;;;4.72;;
15843;SDS011;50807;52.436;13.346;2023-05-16T02:15:30;5.63;;;5.17;;
15843;SDS011;50807;52.436;13.346;2023-05-16T02:16:01;5.80;;;5.40;;
15843;SDS011;50807;52.436;13.346;2023-05-16T02:16:33;6.25;;;5.72;;
15843;SDS011;50807;52.436;13.346;2023-05-16T02:17:08;6.43;;;5.75;;
15843;SDS011;50807;52.436;13.346;2023-05-16T02:17:39;5.47;;;5.07;;
15843;SDS011;50807;52.436;13.346;2023-05-16T02:18:10;5.65;;;5.25;;
15843;SDS011;50807;52.436;13.346;2023-05-16T02:18:42;5.88;;;5.40;;
15843;SDS011;50807;52.436;13.346;2023-05-16T02:19:14;5.97;;;5.57;;
15843;SDS011;50807;52.436;13.346;2023-05-16T02:19:45;7.40;;;5.40;;
15843;SDS011;50807;52.436;13.346;2023-05-16T02:20:17;6.05;;;5.55;;
15843;SDS011;50807;52.436;13.346;2023-05-16T02:20:48;5.20;;;4.82;;
15843;SDS011;50807;52.436;13.346;2023-05-16T02:21:19;6.10;;;5.50;;
15843;SDS011;50807;52.436;13.346;2023-05-16T02:21:51;5.93;;;5.43;;
15843;SDS011;50807;52.436;13.346;2023-05-16T02:22:22;6.37;;;5.77;;
15843;SDS011;50807;52.436;13.346;2023-05-16T02:22:55;5.70;;;5.30;;
15843;SDS011;50807;52.436;13.346;2023-05-16T02:23:27;6.00;;;5.50;;
15843;SDS011;50807;52.436;13.346;2023-05-16T02:23:58;5.82;;;5.32;;
15843;SDS011;50807;52.436;13.346;2023-05-16T02:24:29;6.03;;;5.50;;
15843;SDS011;50807;52.436;13.346;2023-05-16T02:25:01;5.78;;;5.30;;
15843;SDS011;50807;52.436;13.346;2023-05-16T02:25:33;5.95;;;5.38;;
15843;SDS011;50807;52.436;13.346;2023-05-16T02:26:04;6.13;;;5.63;;
15843;SDS011;50807;52.436;13.346;2023-05-16T02:26:37;5.72;;;5.32;;
15843;SDS011;50807;52.436;13.346;2023-05-16T02:27:08;5.75;;;5.25;;
15843;SDS011;50807;52.436;13.346;2023-05-16T02:27:39;5.60;;;5.20;;
15843;SDS011;50807;52.436;13.346;2023-05-16T02:28:11;6.22;;;5.30;;
15843;SDS011;50807;52.436;13.346;2023-05-16T02:28:42;5.83;;;5.27;;
15843;SDS011;50807;52.436;13.346;2023-05-16T02:29:13;5.20;;;4.72;;
15843;SDS011;50807;52.436;13.346;2023-05-16T02:29:46;5.40;;;5.00;;
15843;SDS011;50807;52.436;13.346;2023-05-16T02:30:16;5.60;;;5.10;;
15843;SDS011;50807;52.436;13.346;2023-05-16T02:30:54;6.47;;;5.20;;
15843;SDS011;50807;52.436;13.346;2023-05-16T02:31:31;5.55;;;5.05;;
15843;SDS011;50807;52.436;13.346;2023-05-16T02:32:03;5.32;;;4.93;;
15843;SDS011;50807;52.436;13.346;2023-05-16T02:32:35;6.10;;;5.53;;
15843;SDS011;50807;52.436;13.346;2023-05-16T02:33:06;6.13;;;5.63;;
15843;SDS011;50807;52.436;13.346;2023-05-16T02:33:37;5.80;;;5.37;;
15843;SDS011;50807;52.436;13.346;2023-05-16T02:34:08;5.55;;;5.07;;
15843;SDS011;50807;52.436;13.346;2023-05-16T02:34:40;5.47;;;5.07;;
15843;SDS011;50807;52.436;13.346;2023-05-16T02:35:12;6.22;;;5.65;;
15843;SDS011;50807;52.436;13.346;2023-05-16T02:35:44;5.93;;;5.43;;
15843;SDS011;50807;52.436;13.346;2023-05-16T02:36:16;5.60;;;5.20;;
15843;SDS011;50807;52.436;13.346;2023-05-16T02:36:47;6.57;;;5.63;;
15843;SDS011;50807;52.436;13.346;2023-05-16T02:37:17;6.30;;;5.43;;
15843;SDS011;50807;52.436;13.346;2023-05-16T02:37:49;6.10;;;5.60;;
15843;SDS011;50807;52.436;13.346;2023-05-16T02:38:20;6.10;;;5.60;;
15843;SDS011;50807;52.436;13.346;2023-05-16T02:38:51;5.80;;;5.20;;
15843;SDS011;50807;52.436;13.346;2023-05-16T02:39:23;5.75;;;5.30;;
15843;SDS011;50807;52.436;13.346;2023-05-16T02:39:54;5.75;;;5.25;;
15843;SDS011;50807;52.436;13.346;2023-05-16T02:40:25;6.10;;;5.57;;
15843;SDS011;50807;52.436;13.346;2023-05-16T02:40:57;5.75;;;5.35;;
15843;SDS011;50807;52.436;13.346;2023-05-16T02:41:28;6.40;;;5.80;;
15843;SDS011;50807;52.436;13.346;2023-05-16T02:42:00;6.37;;;5.87;;
15843;SDS011;50807;52.436;13.346;2023-05-16T02:42:31;5.68;;;5.28;;
15843;SDS011;50807;52.436;13.346;2023-05-16T02:43:03;5.90;;;5.32;;
15843;SDS011;50807;52.436;13.346;2023-05-16T02:43:35;5.43;;;5.03;;
15843;SDS011;50807;52.436;13.346;2023-05-16T02:44:08;6.17;;;5.57;;
15843;SDS011;50807;52.436;13.346;2023-05-16T02:44:40;6.28;;;5.78;;
15843;SDS011;50807;52.436;13.346;2023-05-16T02:45:11;6.07;;;5.50;;
15843;SDS011;50807;52.436;13.346;2023-05-16T02:45:45;6.07;;;5.57;;
15843;SDS011;50807;52.436;13.346;2023-05-16T02:46:20;6.97;;;5.00;;
15843;SDS011;50807;52.436;13.346;2023-05-16T02:46:54;6.13;;;5.53;;
15843;SDS011;50807;52.436;13.346;2023-05-16T02:47:25;5.93;;;5.43;;
15843;SDS011;50807;52.436;13.346;2023-05-16T02:47:58;6.38;;;5.82;;
15843;SDS011;50807;52.436;13.346;2023-05-16T02:48:29;6.00;;;5.50;;
15843;SDS011;50807;52.436;13.346;2023-05-16T02:49:01;6.50;;;5.90;;
15843;SDS011;50807;52.436;13.346;2023-05-16T02:49:32;5.00;;;4.70;;
15843;SDS011;50807;52.436;13.346;2023-05-16T02:50:03;6.33;;;5.70;;
15843;SDS011;50807;52.436;13.346;2023-05-16T02:50:36;6.35;;;5.72;;
15843;SDS011;50807;52.436;13.346;2023-05-16T02:51:09;6.18;;;5.60;;
15843;SDS011;50807;52.436;13.346;2023-05-16T02:51:40;5.87;;;5.40;;
15843;SDS011;50807;52.436;13.346;2023-05-16T02:52:10;6.43;;;5.83;;
15843;SDS011;50807;52.436;13.346;2023-05-16T02:52:42;5.93;;;5.43;;
15843;SDS011;50807;52.436;13.346;2023-05-16T02:53:13;6.27;;;5.77;;
15843;SDS011;50807;52.436;13.346;2023-05-16T02:53:44;6.03;;;5.47;;
15843;SDS011;50807;52.436;13.346;2023-05-16T02:54:15;6.17;;;5.67;;
15843;SDS011;50807;52.436;13.346;2023-05-16T02:54:47;6.72;;;5.90;;
15843;SDS011;50807;52.436;13.346;2023-05-16T02:55:18;6.57;;;6.07;;
15843;SDS011;50807;52.436;13.346;2023-05-16T02:55:49;5.75;;;5.28;;
15843;SDS011;50807;52.436;13.346;2023-05-16T02:56:21;5.70;;;5.20;;
15843;SDS011;50807;52.436;13.346;2023-05-16T02:56:52;5.63;;;5.15;;
15843;SDS011;50807;52.436;13.346;2023-05-16T02:57:24;6.53;;;5.97;;
15843;SDS011;50807;52.436;13.346;2023-05-16T02:57:56;6.43;;;5.85;;
15843;SDS011;50807;52.436;13.346;2023-05-16T02:58:27;6.20;;;5.60;;
15843;SDS011;50807;52.436;13.346;2023-05-16T02:58:58;6.37;;;5.87;;
15843;SDS011;50807;52.436;13.346;2023-05-16T02:59:29;5.88;;;5.38;;
15843;SDS011;50807;52.436;13.346;2023-05-16T03:00:01;6.10;;;5.57;;
15843;SDS011;50807;52.436;13.346;2023-05-16T03:00:35;5.95;;;5.35;;
15843;SDS011;50807;52.436;13.346;2023-05-16T03:01:06;6.40;;;5.80;;
15843;SDS011;50807;52.436;13.346;2023-05-16T03:01:38;6.82;;;6.22;;
15843;SDS011;50807;52.436;13.346;2023-05-16T03:02:09;5.93;;;5.53;;
15843;SDS011;50807;52.436;13.346;2023-05-16T03:02:40;6.27;;;5.70;;
15843;SDS011;50807;52.436;13.346;2023-05-16T03:03:12;5.80;;;5.30;;
15843;SDS011;50807;52.436;13.346;2023-05-16T03:03:43;5.47;;;5.07;;
15843;SDS011;50807;52.436;13.346;2023-05-16T03:04:14;5.90;;;5.43;;
15843;SDS011;50807;52.436;13.346;2023-05-16T03:04:48;6.85;;;5.47;;
15843;SDS011;50807;52.436;13.346;2023-05-16T03:05:20;6.22;;;5.72;;
15843;SDS011;50807;52.436;13.346;2023-05-16T03:05:53;6.40;;;5.90;;
15843;SDS011;50807;52.436;13.346;2023-05-16T03:06:24;5.90;;;5.47;;
15843;SDS011;50807;52.436;13.346;2023-05-16T03:06:56;6.13;;;5.63;;
15843;SDS011;50807;52.436;13.346;2023-05-16T03:07:27;6.23;;;5.70;;
15843;SDS011;50807;52.436;13.346;2023-05-16T03:07:59;8.73;;;5.68;;
15843;SDS011;50807;52.436;13.346;2023-05-16T03:08:32;5.38;;;4.43;;
15843;SDS011;50807;52.436;13.346;2023-05-16T03:09:04;6.05;;;5.55;;
15843;SDS011;50807;52.436;13.346;2023-05-16T03:09:35;7.77;;;6.00;;
15843;SDS011;50807;52.436;13.346;2023-05-16T03:10:07;6.65;;;6.05;;
15843;SDS011;50807;52.436;13.346;2023-05-16T03:10:38;6.32;;;5.82;;
15843;SDS011;50807;52.436;13.346;2023-05-16T03:11:10;6.53;;;5.97;;
15843;SDS011;50807;52.436;13.346;2023-05-16T03:11:41;6.87;;;6.20;;
15843;SDS011;50807;52.436;13.346;2023-05-16T03:12:14;6.53;;;5.90;;
15843;SDS011;50807;52.436;13.346;2023-05-16T03:12:50;6.60;;;6.03;;
15843;SDS011;50807;52.436;13.346;2023-05-16T03:13:21;6.47;;;5.97;;
15843;SDS011;50807;52.436;13.346;2023-05-16T03:13:52;6.45;;;5.70;;
15843;SDS011;50807;52.436;13.346;2023-05-16T03:14:25;6.05;;;5.55;;
15843;SDS011;50807;52.436;13.346;2023-05-16T03:14:55;5.67;;;5.20;;
15843;SDS011;50807;52.436;13.346;2023-05-16T03:15:26;6.60;;;6.00;;
15843;SDS011;50807;52.436;13.346;2023-05-16T03:15:59;5.90;;;5.40;;
15843;SDS011;50807;52.436;13.346;2023-05-16T03:16:31;6.68;;;6.07;;
15843;SDS011;50807;52.436;13.346;2023-05-16T03:17:02;6.33;;;5.73;;
15843;SDS011;50807;52.436;13.346;2023-05-16T03:17:34;6.47;;;5.82;;
15843;SDS011;50807;52.436;13.346;2023-05-16T03:18:05;6.53;;;5.93;;